Time;durP1;ratioP1;P1;durP2;ratioP2;P2;SDS_P1;SDS_P2;PMS_P1;PMS_P2;Temp;Humidity;BMP_temperature;BMP_pressure;BME280_temperature;BME280_humidity;BME280_pressure;Samples;Min_cycle;Max_cycle;Signal;HPM_P1;HPM_P2
2021/05/31 00:01:10;;;;;;;6.15;3.33;;;15.40;61.80;;;;;;5075219;28;20042;-72
2021/05/31 00:03:40;;;;;;;6.30;3.25;;;15.40;62.10;;;;;;5103467;28;20112;-73
2021/05/31 00:06:07;;;;;;;5.88;2.97;;;15.30;62.20;;;;;;5071947;28;20089;-73
2021/05/31 00:08:34;;;;;;;6.20;3.63;;;15.30;62.40;;;;;;5106189;28;20663;-77
2021/05/31 00:11:01;;;;;;;4.97;3.30;;;15.30;62.80;;;;;;5108150;28;20043;-74
2021/05/31 00:13:29;;;;;;;6.03;3.47;;;15.20;62.90;;;;;;5078856;28;20047;-76
2021/05/31 00:16:00;;;;;;;8.80;3.65;;;15.10;63.00;;;;;;5106169;28;20058;-73
2021/05/31 00:18:28;;;;;;;6.78;3.75;;;15.10;63.10;;;;;;5084135;28;20054;-71
2021/05/31 00:20:55;;;;;;;5.97;3.30;;;15.10;63.40;;;;;;5092034;28;20036;-71
2021/05/31 00:23:21;;;;;;;6.07;2.85;;;15.10;63.60;;;;;;5084982;28;20035;-71
2021/05/31 00:25:49;;;;;;;3.92;2.25;;;15.00;63.60;;;;;;5097733;28;20071;-71
2021/05/31 00:28:16;;;;;;;6.63;3.53;;;15.00;63.60;;;;;;5095028;28;20044;-71
2021/05/31 00:30:43;;;;;;;7.45;2.80;;;15.00;63.90;;;;;;5108745;28;20062;-71
2021/05/31 00:33:10;;;;;;;5.40;3.10;;;15.00;64.00;;;;;;5106680;28;20084;-74
2021/05/31 00:35:38;;;;;;;4.97;2.85;;;15.00;64.20;;;;;;5091457;28;20536;-71
2021/05/31 00:38:05;;;;;;;7.38;2.95;;;15.00;64.20;;;;;;5089853;28;20052;-71
2021/05/31 00:40:32;;;;;;;4.97;2.90;;;15.00;64.40;;;;;;5078567;28;20036;-71
2021/05/31 00:42:59;;;;;;;5.18;3.03;;;14.90;64.50;;;;;;5109813;28;20035;-71
2021/05/31 00:45:28;;;;;;;5.82;3.35;;;14.90;65.00;;;;;;5113189;28;20044;-70
2021/05/31 00:47:55;;;;;;;6.03;3.50;;;14.90;65.00;;;;;;5091447;28;20052;-71
2021/05/31 00:50:22;;;;;;;6.90;3.13;;;14.80;65.10;;;;;;5095979;28;20104;-70
2021/05/31 00:52:49;;;;;;;8.10;2.90;;;14.80;65.40;;;;;;5075234;28;20510;-70
2021/05/31 00:55:17;;;;;;;7.25;3.38;;;14.80;66.10;;;;;;5061853;28;20486;-71
2021/05/31 00:57:44;;;;;;;5.15;2.85;;;14.70;65.70;;;;;;5110372;28;20067;-71
2021/05/31 01:00:12;;;;;;;7.93;3.50;;;14.70;65.80;;;;;;5112455;28;20058;-70
2021/05/31 01:02:39;;;;;;;5.55;2.88;;;14.70;65.90;;;;;;5076809;28;20036;-71
2021/05/31 01:05:07;;;;;;;6.55;3.63;;;14.70;65.90;;;;;;5108347;28;20487;-71
2021/05/31 01:07:43;;;;;;;5.68;3.53;;;14.70;66.30;;;;;;5070551;28;20051;-71
2021/05/31 01:10:25;;;;;;;6.65;3.60;;;14.70;66.40;;;;;;5096572;28;20441;-72
2021/05/31 01:13:03;;;;;;;6.80;3.42;;;14.70;66.60;;;;;;5090392;28;20078;-71
2021/05/31 01:15:33;;;;;;;7.00;3.72;;;14.60;66.70;;;;;;5088758;28;20055;-71
2021/05/31 01:18:13;;;;;;;7.22;3.60;;;14.60;67.00;;;;;;5099948;28;20076;-71
2021/05/31 01:20:52;;;;;;;5.82;3.20;;;14.60;67.10;;;;;;5095016;28;20044;-71
2021/05/31 01:23:20;;;;;;;6.15;3.25;;;14.50;67.10;;;;;;5092976;28;20061;-71
2021/05/31 01:26:06;;;;;;;5.97;3.70;;;14.50;67.10;;;;;;5113216;28;20039;-71
2021/05/31 01:29:01;;;;;;;5.13;2.88;;;14.50;67.20;;;;;;5093425;28;20047;-71
2021/05/31 01:31:43;;;;;;;6.63;2.70;;;14.50;67.40;;;;;;5075386;28;20073;-71
2021/05/31 01:34:12;;;;;;;6.28;2.97;;;14.40;67.40;;;;;;5105394;28;20552;-71
2021/05/31 01:36:44;;;;;;;5.07;2.95;;;14.40;67.50;;;;;;5092634;28;20047;-71
2021/05/31 01:39:14;;;;;;;6.70;3.03;;;14.40;67.60;;;;;;5092613;28;20474;-70
2021/05/31 01:41:43;;;;;;;6.03;3.20;;;14.40;67.80;;;;;;5093496;28;20497;-71
2021/05/31 01:44:11;;;;;;;7.00;3.30;;;14.30;67.90;;;;;;5094431;28;20035;-71
2021/05/31 01:46:39;;;;;;;5.53;3.30;;;14.30;68.10;;;;;;5108709;28;20487;-71
2021/05/31 01:49:09;;;;;;;5.93;2.92;;;14.30;68.20;;;;;;5113032;28;20562;-74
2021/05/31 01:51:37;;;;;;;5.55;3.00;;;14.30;68.20;;;;;;5114239;28;20097;-75
2021/05/31 01:54:08;;;;;;;4.93;2.80;;;14.30;68.30;;;;;;5111359;28;20532;-74
2021/05/31 01:56:37;;;;;;;4.82;3.15;;;14.20;68.40;;;;;;5095358;28;20063;-74
2021/05/31 01:59:05;;;;;;;5.47;2.90;;;14.20;68.50;;;;;;5095908;28;20126;-74
2021/05/31 02:01:33;;;;;;;5.32;2.88;;;14.20;68.60;;;;;;5095290;28;20052;-74
2021/05/31 02:04:01;;;;;;;4.07;2.72;;;14.20;68.70;;;;;;5113776;28;20063;-74
2021/05/31 02:06:28;;;;;;;8.25;3.28;;;14.20;68.80;;;;;;5095180;28;20035;-74
2021/05/31 02:08:55;;;;;;;7.40;3.55;;;14.20;68.90;;;;;;5095368;28;20050;-74
2021/05/31 02:11:43;;;;;;;6.03;3.45;;;14.20;69.00;;;;;;5112269;28;20036;-74
2021/05/31 02:14:51;;;;;;;5.97;3.85;;;14.20;69.20;;;;;;5094805;28;20043;-74
2021/05/31 02:17:43;;;;;;;5.32;3.42;;;14.20;69.20;;;;;;5107778;28;21047;-74
2021/05/31 02:20:17;;;;;;;4.30;2.78;;;14.20;69.30;;;;;;5111695;28;20040;-73
2021/05/31 02:22:47;;;;;;;5.63;3.20;;;14.10;69.50;;;;;;5109946;28;20540;-74
2021/05/31 02:25:15;;;;;;;4.97;3.22;;;14.10;69.50;;;;;;5111942;28;20131;-74
2021/05/31 02:27:43;;;;;;;5.60;3.20;;;14.10;69.60;;;;;;5093717;28;20546;-75
2021/05/31 02:30:12;;;;;;;7.18;3.63;;;14.00;69.60;;;;;;5111769;28;20035;-75
2021/05/31 02:32:52;;;;;;;5.72;3.13;;;14.00;69.70;;;;;;5095464;28;20044;-74
2021/05/31 02:35:21;;;;;;;5.28;3.28;;;14.00;69.80;;;;;;5094863;28;20406;-74
2021/05/31 02:37:48;;;;;;;5.78;3.13;;;14.00;69.90;;;;;;5110829;28;20096;-74
2021/05/31 02:40:17;;;;;;;4.63;3.30;;;14.00;70.00;;;;;;5111829;28;20035;-74
2021/05/31 02:42:52;;;;;;;5.75;3.17;;;13.90;70.10;;;;;;5109725;28;20488;-74
2021/05/31 02:45:23;;;;;;;7.72;3.58;;;13.90;70.20;;;;;;5092791;28;20085;-74
2021/05/31 02:47:51;;;;;;;6.40;3.65;;;13.90;70.30;;;;;;5061572;28;20051;-73
2021/05/31 02:50:20;;;;;;;6.32;3.13;;;13.80;70.50;;;;;;5112883;28;20032;-74
2021/05/31 02:52:47;;;;;;;5.95;3.30;;;13.80;70.60;;;;;;5110956;28;20039;-74
2021/05/31 02:55:17;;;;;;;6.85;3.90;;;13.80;70.70;;;;;;5107318;28;20486;-74
2021/05/31 02:57:45;;;;;;;7.05;3.28;;;13.70;70.70;;;;;;5112282;28;20458;-74
2021/05/31 03:00:15;;;;;;;8.02;3.28;;;13.70;70.70;;;;;;5112117;28;20446;-74
2021/05/31 03:02:44;;;;;;;6.55;3.22;;;13.70;70.70;;;;;;5105283;28;20391;-74
2021/05/31 03:05:27;;;;;;;5.03;2.90;;;13.70;70.80;;;;;;5109097;27;20036;-74
2021/05/31 03:07:56;;;;;;;5.63;3.75;;;13.70;70.80;;;;;;5106873;28;20065;-74
2021/05/31 03:10:23;;;;;;;7.00;3.40;;;13.60;70.80;;;;;;5092462;28;20054;-74
2021/05/31 03:12:51;;;;;;;7.75;3.72;;;13.60;70.80;;;;;;5111558;28;20196;-74
2021/05/31 03:15:19;;;;;;;5.80;3.08;;;13.60;70.90;;;;;;5110530;28;20036;-74
2021/05/31 03:17:48;;;;;;;6.57;3.55;;;13.60;71.00;;;;;;5104797;28;20498;-74
2021/05/31 03:20:17;;;;;;;9.30;4.40;;;13.50;71.00;;;;;;5093204;28;20104;-74
2021/05/31 03:22:45;;;;;;;7.18;3.00;;;13.50;71.10;;;;;;5093156;28;20035;-74
2021/05/31 03:25:13;;;;;;;6.47;3.67;;;13.50;71.10;;;;;;5092467;28;20380;-75
2021/05/31 03:27:41;;;;;;;7.30;4.28;;;13.50;71.10;;;;;;5090626;28;20036;-71
2021/05/31 03:30:11;;;;;;;7.65;3.47;;;13.50;72.00;;;;;;5104093;28;20115;-71
2021/05/31 03:32:38;;;;;;;7.10;3.75;;;13.40;71.50;;;;;;5088600;28;20044;-70
2021/05/31 03:35:08;;;;;;;6.07;3.90;;;13.40;71.40;;;;;;5090255;28;20101;-71
2021/05/31 03:37:36;;;;;;;9.60;4.40;;;13.40;71.50;;;;;;5107946;28;20093;-71
2021/05/31 03:40:05;;;;;;;8.82;5.10;;;13.40;71.60;;;;;;5103213;28;20118;-71
2021/05/31 03:42:32;;;;;;;8.98;4.05;;;13.30;71.60;;;;;;5104739;28;20059;-71
2021/05/31 03:44:59;;;;;;;7.90;4.05;;;13.30;71.70;;;;;;5104661;28;20063;-71
2021/05/31 03:47:26;;;;;;;5.38;3.13;;;13.30;71.80;;;;;;5106370;28;20043;-70
2021/05/31 03:49:53;;;;;;;6.18;4.18;;;13.30;71.80;;;;;;5069271;28;20368;-71
2021/05/31 03:52:20;;;;;;;5.32;3.50;;;13.30;71.90;;;;;;5104324;28;20039;-71
2021/05/31 03:54:47;;;;;;;6.00;3.28;;;13.20;71.90;;;;;;5087632;28;20039;-71
2021/05/31 03:57:15;;;;;;;6.45;3.33;;;13.20;72.00;;;;;;5111643;28;20512;-71
2021/05/31 03:59:42;;;;;;;6.47;3.42;;;13.20;72.10;;;;;;5091825;28;20040;-71
2021/05/31 04:02:10;;;;;;;6.25;3.17;;;13.20;72.00;;;;;;5074691;28;20047;-71
2021/05/31 04:04:47;;;;;;;6.68;3.33;;;13.20;72.10;;;;;;5076267;28;20071;-71
2021/05/31 04:12:43;;;;;;;7.03;4.50;;;13.20;73.00;;;;;;5109150;28;20050;-71
2021/05/31 04:15:11;;;;;;;6.72;4.35;;;13.20;72.50;;;;;;5093042;28;20044;-71
2021/05/31 04:17:38;;;;;;;7.05;4.57;;;13.20;72.50;;;;;;5069060;28;20044;-71
2021/05/31 04:20:05;;;;;;;7.95;4.88;;;13.20;72.60;;;;;;5106184;28;20043;-71
2021/05/31 04:22:33;;;;;;;7.38;4.30;;;13.20;72.60;;;;;;5103985;28;20063;-71
2021/05/31 04:24:59;;;;;;;8.27;3.90;;;13.20;72.60;;;;;;5084834;28;20093;-74
2021/05/31 04:27:26;;;;;;;6.63;3.92;;;13.20;72.60;;;;;;5087359;28;20040;-75
2021/05/31 04:29:53;;;;;;;7.25;4.43;;;13.20;72.60;;;;;;5105394;28;20036;-74
2021/05/31 04:32:20;;;;;;;8.15;4.13;;;13.20;72.60;;;;;;5106520;28;20031;-73
2021/05/31 04:34:48;;;;;;;7.47;4.97;;;13.20;72.60;;;;;;5052528;28;20043;-74
2021/05/31 04:37:16;;;;;;;6.68;3.78;;;13.30;73.30;;;;;;5106532;28;20465;-74
2021/05/31 04:39:43;;;;;;;6.53;3.72;;;13.30;72.60;;;;;;5087672;28;20043;-75
2021/05/31 04:42:10;;;;;;;6.28;4.22;;;13.30;72.70;;;;;;5105349;28;20032;-75
2021/05/31 04:44:37;;;;;;;5.88;3.47;;;13.30;72.60;;;;;;5104691;28;20082;-74
2021/05/31 04:47:05;;;;;;;8.95;4.65;;;13.40;72.50;;;;;;5094531;28;20040;-75
2021/05/31 04:49:33;;;;;;;7.05;3.72;;;13.40;72.40;;;;;;5108401;28;20406;-74
2021/05/31 04:52:01;;;;;;;6.13;3.63;;;13.40;72.30;;;;;;5079838;28;20047;-74
2021/05/31 04:54:29;;;;;;;8.40;4.00;;;13.50;72.30;;;;;;5095053;28;21036;-74
2021/05/31 04:56:56;;;;;;;8.25;4.22;;;13.50;72.20;;;;;;5113221;28;20429;-74
2021/05/31 04:59:23;;;;;;;6.78;4.40;;;13.60;72.20;;;;;;5095956;28;20039;-74
2021/05/31 05:01:50;;;;;;;7.38;4.05;;;13.60;72.20;;;;;;5113663;28;20040;-74
2021/05/31 05:04:17;;;;;;;6.43;4.03;;;13.70;72.20;;;;;;5078163;28;20068;-74
2021/05/31 05:06:44;;;;;;;8.73;3.97;;;13.70;72.00;;;;;;5115374;28;20093;-74
2021/05/31 05:09:11;;;;;;;7.28;3.88;;;13.80;71.90;;;;;;5113596;28;20039;-74
2021/05/31 05:11:38;;;;;;;6.10;3.38;;;13.80;71.80;;;;;;5113588;28;20035;-75
2021/05/31 05:14:05;;;;;;;5.63;3.85;;;13.90;71.70;;;;;;5113175;28;20039;-74
2021/05/31 05:16:33;;;;;;;10.40;3.95;;;14.00;71.60;;;;;;5096194;28;20040;-74
2021/05/31 05:19:00;;;;;;;12.05;4.70;;;14.10;71.40;;;;;;5096076;28;20118;-74
2021/05/31 05:21:27;;;;;;;7.13;3.30;;;14.20;71.40;;;;;;5113277;28;20085;-74
2021/05/31 05:23:54;;;;;;;8.40;4.28;;;14.20;71.20;;;;;;5098869;27;20044;-75
2021/05/31 05:26:21;;;;;;;6.55;3.88;;;14.30;71.10;;;;;;5095262;28;20491;-75
2021/05/31 05:28:49;;;;;;;5.65;3.38;;;14.40;71.00;;;;;;5085485;28;20063;-74
2021/05/31 05:31:16;;;;;;;7.65;4.18;;;14.50;70.80;;;;;;5074544;28;20055;-74
2021/05/31 05:33:43;;;;;;;8.35;4.68;;;14.60;70.70;;;;;;5107729;28;20063;-74
2021/05/31 05:36:43;;;;;;;6.50;3.67;;;14.70;70.60;;;;;;5113670;28;20031;-74
2021/05/31 05:49:50;;;;;;;7.95;3.33;;;15.20;69.60;;;;;;5102244;28;20112;-75
2021/05/31 05:52:17;;;;;;;7.07;4.30;;;15.40;69.40;;;;;;5112769;28;20097;-74
2021/05/31 05:54:44;;;;;;;5.75;3.40;;;15.50;69.20;;;;;;5112206;28;20395;-74
2021/05/31 05:57:11;;;;;;;7.40;4.82;;;15.60;69.10;;;;;;5113569;28;20052;-74
2021/05/31 05:59:38;;;;;;;6.53;4.13;;;15.70;69.00;;;;;;5106468;28;20100;-74
2021/05/31 06:02:06;;;;;;;8.77;3.85;;;15.80;68.80;;;;;;5058791;28;20036;-74
2021/05/31 06:04:34;;;;;;;6.10;4.00;;;15.90;68.70;;;;;;5092007;28;20082;-75
2021/05/31 06:07:02;;;;;;;7.00;4.20;;;16.00;68.50;;;;;;5095806;28;20081;-73
2021/05/31 06:09:29;;;;;;;7.15;3.88;;;16.00;68.40;;;;;;5074826;28;20391;-75
2021/05/31 06:11:56;;;;;;;7.55;3.97;;;16.10;68.40;;;;;;5095608;28;20796;-74
2021/05/31 06:14:23;;;;;;;6.97;3.75;;;16.20;68.20;;;;;;5092895;28;20082;-74
2021/05/31 06:16:50;;;;;;;8.35;3.95;;;16.30;68.10;;;;;;5112404;28;20047;-71
2021/05/31 06:19:17;;;;;;;7.55;3.97;;;16.30;67.90;;;;;;5109263;28;20054;-71
2021/05/31 06:21:44;;;;;;;9.63;4.13;;;16.40;67.80;;;;;;5076510;28;20039;-71
2021/05/31 06:24:12;;;;;;;7.75;4.78;;;16.50;67.80;;;;;;5091025;28;20036;-71
2021/05/31 06:26:39;;;;;;;7.55;4.32;;;16.50;67.70;;;;;;5075731;28;20071;-71
2021/05/31 06:29:06;;;;;;;8.40;4.05;;;16.60;67.50;;;;;;5094898;28;20044;-71
2021/05/31 06:31:34;;;;;;;9.02;4.97;;;16.70;67.40;;;;;;5075550;28;20119;-71
2021/05/31 06:34:03;;;;;;;5.60;3.60;;;16.80;67.30;;;;;;5087431;28;20032;-71
2021/05/31 06:36:32;;;;;;;8.68;4.53;;;16.90;67.20;;;;;;5077232;28;20113;-71
2021/05/31 06:38:59;;;;;;;7.68;4.20;;;16.90;67.10;;;;;;5091587;28;20077;-71
2021/05/31 06:41:26;;;;;;;7.10;4.32;;;17.00;67.00;;;;;;5107254;28;20043;-71
2021/05/31 06:43:53;;;;;;;7.50;4.65;;;17.10;67.50;;;;;;5111642;28;20040;-71
2021/05/31 06:46:20;;;;;;;9.25;4.38;;;17.10;66.70;;;;;;5093635;28;20509;-71
2021/05/31 06:48:47;;;;;;;7.05;4.53;;;17.20;66.60;;;;;;5074750;28;20044;-71
2021/05/31 06:51:14;;;;;;;8.50;4.38;;;17.30;66.60;;;;;;5112175;28;20031;-71
2021/05/31 06:53:41;;;;;;;8.85;4.65;;;17.30;66.40;;;;;;5084978;28;20040;-71
2021/05/31 06:56:08;;;;;;;7.60;4.35;;;17.30;66.40;;;;;;5111701;28;20039;-71
2021/05/31 06:58:35;;;;;;;7.45;4.22;;;17.40;66.40;;;;;;5109677;28;20118;-70
2021/05/31 07:01:03;;;;;;;6.35;3.65;;;17.50;66.20;;;;;;5091514;28;20047;-71
2021/05/31 07:03:30;;;;;;;7.15;4.15;;;17.60;66.00;;;;;;5075269;28;20051;-71
2021/05/31 07:05:57;;;;;;;7.97;4.47;;;17.70;65.90;;;;;;5111274;28;20092;-70
2021/05/31 07:08:26;;;;;;;7.65;4.07;;;17.80;65.70;;;;;;5111248;28;20032;-70
2021/05/31 07:10:56;;;;;;;8.65;4.80;;;17.80;65.90;;;;;;5112028;28;20032;-70
2021/05/31 07:13:24;;;;;;;8.25;4.55;;;17.90;65.50;;;;;;5092185;28;20044;-70
2021/05/31 07:15:54;;;;;;;5.75;3.63;;;17.90;65.40;;;;;;5077452;28;20043;-71
2021/05/31 07:18:23;;;;;;;6.72;4.47;;;18.00;65.30;;;;;;5111040;28;20114;-71
2021/05/31 07:20:52;;;;;;;9.48;5.20;;;18.10;65.10;;;;;;5111867;28;20425;-70
2021/05/31 07:23:20;;;;;;;7.32;4.80;;;18.10;65.10;;;;;;5108141;28;20036;-70
2021/05/31 07:25:47;;;;;;;10.73;5.00;;;18.20;65.10;;;;;;5108988;28;20062;-71
2021/05/31 07:28:15;;;;;;;8.05;4.90;;;18.20;65.00;;;;;;5112289;28;20088;-70
2021/05/31 07:30:42;;;;;;;8.32;4.25;;;18.30;65.00;;;;;;5091537;28;20032;-70
2021/05/31 07:33:13;;;;;;;8.90;4.88;;;18.30;64.90;;;;;;5106551;28;20039;-70
2021/05/31 07:35:40;;;;;;;8.88;4.22;;;18.50;64.80;;;;;;5106316;28;20040;-70
2021/05/31 07:38:08;;;;;;;9.40;4.07;;;18.60;64.60;;;;;;5088432;28;20055;-70
2021/05/31 07:40:35;;;;;;;8.43;4.03;;;18.80;64.50;;;;;;5108995;28;20040;-71
2021/05/31 07:43:03;;;;;;;6.40;3.83;;;18.90;64.20;;;;;;5089568;28;20036;-71
2021/05/31 07:45:33;;;;;;;5.95;3.45;;;19.00;64.00;;;;;;5067777;28;20130;-70
2021/05/31 07:48:07;;;;;;;5.70;3.38;;;19.10;63.90;;;;;;5090272;28;20040;-71
2021/05/31 07:50:34;;;;;;;8.23;3.72;;;19.30;63.70;;;;;;5106052;28;20112;-70
2021/05/31 07:53:06;;;;;;;6.63;3.88;;;19.40;63.60;;;;;;5086384;28;21691;-70
2021/05/31 07:55:33;;;;;;;6.10;3.10;;;19.50;63.50;;;;;;5069779;28;20047;-70
2021/05/31 07:58:00;;;;;;;7.07;3.97;;;19.60;63.30;;;;;;5088741;28;20078;-70
2021/05/31 08:00:30;;;;;;;6.90;3.55;;;19.80;63.20;;;;;;5070021;28;20407;-71
2021/05/31 08:02:57;;;;;;;6.57;3.45;;;19.80;63.10;;;;;;5107654;28;20031;-69
2021/05/31 08:05:26;;;;;;;7.43;3.65;;;19.90;63.70;;;;;;5076981;28;20048;-71
2021/05/31 08:07:53;;;;;;;6.50;3.80;;;20.00;62.90;;;;;;5085338;28;20532;-71
2021/05/31 08:10:22;;;;;;;4.57;3.00;;;20.20;62.80;;;;;;5103246;28;20039;-71
2021/05/31 08:12:51;;;;;;;6.47;3.85;;;20.30;62.70;;;;;;5084915;28;20089;-71
2021/05/31 08:15:18;;;;;;;6.47;4.10;;;20.30;62.50;;;;;;5101198;28;20036;-70
2021/05/31 08:17:45;;;;;;;8.57;5.10;;;20.40;62.50;;;;;;5084554;28;20058;-71
2021/05/31 08:20:13;;;;;;;6.70;3.67;;;20.50;62.30;;;;;;5088134;28;20119;-70
2021/05/31 08:22:45;;;;;;;6.75;4.75;;;20.60;62.30;;;;;;5089691;28;20142;-71
2021/05/31 08:25:13;;;;;;;5.77;3.80;;;20.60;62.30;;;;;;5109042;28;20070;-70
2021/05/31 08:27:41;;;;;;;7.30;4.18;;;20.70;62.20;;;;;;5089873;28;20300;-71
2021/05/31 08:30:09;;;;;;;7.45;4.15;;;20.80;62.10;;;;;;5115074;28;20114;-71
2021/05/31 08:32:36;;;;;;;8.05;4.85;;;20.90;61.90;;;;;;5091879;28;20093;-71
2021/05/31 08:35:03;;;;;;;8.57;4.07;;;21.00;61.80;;;;;;5095971;28;20514;-70
2021/05/31 08:37:30;;;;;;;5.88;3.70;;;21.10;61.70;;;;;;5112339;28;20784;-71
2021/05/31 08:39:57;;;;;;;7.97;3.88;;;21.20;61.70;;;;;;5107967;28;20082;-71
2021/05/31 08:42:24;;;;;;;7.00;3.92;;;21.30;61.50;;;;;;5091375;28;20100;-71
2021/05/31 08:44:51;;;;;;;5.75;3.67;;;21.40;61.30;;;;;;5113367;28;20495;-71
2021/05/31 08:47:20;;;;;;;7.15;3.78;;;21.50;61.10;;;;;;5093467;28;20097;-71
2021/05/31 08:49:50;;;;;;;4.47;3.10;;;21.50;60.90;;;;;;5091850;28;20035;-71
2021/05/31 08:52:17;;;;;;;8.35;3.60;;;21.60;60.80;;;;;;5113936;28;20467;-71
2021/05/31 08:54:46;;;;;;;7.68;3.70;;;21.70;60.70;;;;;;5061734;28;20112;-71
2021/05/31 08:57:13;;;;;;;7.40;3.60;;;21.80;60.50;;;;;;5099793;28;20043;-72
2021/05/31 08:59:40;;;;;;;6.55;3.92;;;21.90;60.00;;;;;;5093435;28;20043;-70
2021/05/31 09:02:09;;;;;;;6.28;3.55;;;22.00;59.60;;;;;;5087477;28;20039;-70
2021/05/31 09:04:45;;;;;;;7.13;2.83;;;22.00;59.40;;;;;;5073676;28;20126;-70
2021/05/31 09:07:12;;;;;;;4.80;2.63;;;22.10;59.10;;;;;;5114079;28;20043;-70
2021/05/31 09:09:46;;;;;;;5.00;2.95;;;22.20;59.00;;;;;;5094051;28;20479;-70
2021/05/31 09:12:22;;;;;;;4.13;2.45;;;22.30;58.70;;;;;;5111149;28;20108;-70
2021/05/31 09:14:57;;;;;;;4.75;3.10;;;22.40;58.40;;;;;;5112785;28;20499;-70
2021/05/31 09:17:30;;;;;;;7.57;3.22;;;22.50;57.90;;;;;;5093987;28;20451;-71
2021/05/31 09:19:57;;;;;;;5.70;3.60;;;22.50;57.70;;;;;;5092426;28;20032;-71
2021/05/31 09:22:28;;;;;;;5.05;3.28;;;22.60;57.60;;;;;;5106318;28;20054;-70
2021/05/31 09:25:04;;;;;;;5.20;3.10;;;22.70;57.30;;;;;;5041551;28;20098;-71
2021/05/31 09:27:32;;;;;;;4.35;3.03;;;22.70;57.20;;;;;;5088189;28;20047;-72
2021/05/31 09:30:06;;;;;;;4.40;2.50;;;22.80;57.00;;;;;;5104277;28;20459;-72
2021/05/31 09:32:34;;;;;;;4.20;2.63;;;22.90;56.70;;;;;;5089935;28;20097;-72
2021/05/31 09:35:04;;;;;;;3.90;2.25;;;23.00;56.30;;;;;;5078109;28;20046;-71
2021/05/31 09:37:33;;;;;;;6.47;3.05;;;23.10;56.10;;;;;;5103846;28;20051;-71
2021/05/31 09:40:04;;;;;;;4.25;2.42;;;23.20;55.80;;;;;;5111330;28;20040;-72
2021/05/31 09:42:32;;;;;;;5.80;2.72;;;23.20;55.50;;;;;;5110504;28;20039;-72
2021/05/31 09:45:08;;;;;;;3.40;2.35;;;23.30;55.40;;;;;;5091896;28;20090;-72
2021/05/31 09:47:36;;;;;;;5.25;2.42;;;23.40;55.10;;;;;;5076873;28;20489;-72
2021/05/31 09:50:06;;;;;;;4.22;2.72;;;23.50;54.90;;;;;;5084061;28;20040;-72
2021/05/31 09:52:35;;;;;;;4.68;2.83;;;23.50;54.60;;;;;;5071777;28;20044;-72
2021/05/31 09:55:09;;;;;;;3.35;2.08;;;23.50;54.30;;;;;;5074797;28;20044;-72
2021/05/31 09:57:37;;;;;;;2.83;2.00;;;23.60;54.20;;;;;;5080820;28;20040;-72
2021/05/31 10:00:54;;;;;;;4.13;2.33;;;23.70;54.00;;;;;;5042482;28;20043;-72
2021/05/31 10:03:22;;;;;;;3.67;2.40;;;23.80;53.90;;;;;;5070701;28;20046;-75
2021/05/31 10:05:59;;;;;;;3.90;2.40;;;23.80;53.60;;;;;;5082915;28;20082;-71
2021/05/31 10:11:04;;;;;;;3.75;2.17;;;23.90;53.00;;;;;;5082092;28;20055;-72
2021/05/31 10:13:32;;;;;;;3.47;2.13;;;24.00;52.70;;;;;;5080853;28;20044;-72
2021/05/31 10:16:03;;;;;;;3.65;2.45;;;24.00;52.30;;;;;;5079975;28;20040;-72
2021/05/31 10:18:31;;;;;;;3.50;2.00;;;24.10;52.10;;;;;;5087316;28;20043;-72
2021/05/31 10:20:58;;;;;;;3.80;2.30;;;24.10;51.70;;;;;;5072452;28;20297;-72
2021/05/31 10:23:25;;;;;;;5.32;2.20;;;24.10;51.60;;;;;;5056806;28;20048;-73
2021/05/31 10:26:03;;;;;;;3.67;2.53;;;24.20;51.30;;;;;;5064832;28;20064;-73
2021/05/31 10:28:36;;;;;;;3.53;1.92;;;24.10;51.20;;;;;;5069667;28;20105;-73
2021/05/31 10:31:05;;;;;;;3.85;2.13;;;24.20;51.30;;;;;;5085355;28;20039;-73
2021/05/31 10:33:38;;;;;;;5.18;2.97;;;24.20;50.90;;;;;;5072829;28;20043;-72
2021/05/31 10:36:17;;;;;;;;;;;24.30;50.60;;;;;;5091953;28;20036;-71
2021/05/31 10:38:47;;;;;;;2.75;1.92;;;24.30;50.80;;;;;;5086822;28;19924;-74
2021/05/31 10:41:19;;;;;;;4.90;2.83;;;24.30;50.80;;;;;;5087147;28;20727;-72
2021/05/31 10:43:58;;;;;;;3.30;2.05;;;24.40;50.50;;;;;;5063656;28;20048;-70
2021/05/31 10:46:35;;;;;;;3.35;2.13;;;24.40;50.40;;;;;;5070442;28;20040;-71
2021/05/31 10:49:04;;;;;;;3.15;2.10;;;24.50;50.50;;;;;;5106734;28;20059;-71
2021/05/31 10:51:37;;;;;;;3.90;2.00;;;24.50;50.40;;;;;;5112208;28;20043;-73
2021/05/31 10:54:15;;;;;;;2.63;1.80;;;24.60;50.30;;;;;;5112191;28;20483;-73
2021/05/31 10:56:45;;;;;;;3.05;2.20;;;24.70;50.20;;;;;;5105347;28;20039;-74
2021/05/31 10:59:22;;;;;;;3.00;1.50;;;24.70;49.70;;;;;;5094960;28;20039;-74
2021/05/31 11:01:49;;;;;;;3.72;2.58;;;24.70;49.80;;;;;;5113232;28;20046;-74
2021/05/31 11:04:19;;;;;;;2.90;1.80;;;24.70;49.40;;;;;;5111708;28;20042;-72
2021/05/31 11:06:48;;;;;;;3.55;1.73;;;24.60;49.10;;;;;;5111535;28;20040;-71
2021/05/31 11:09:24;;;;;;;3.58;2.10;;;24.60;49.10;;;;;;5111613;28;20055;-72
2021/05/31 11:11:55;;;;;;;2.70;1.90;;;24.70;48.90;;;;;;5110431;28;20032;-71
2021/05/31 11:14:33;;;;;;;3.17;2.40;;;24.70;48.90;;;;;;5072849;28;20044;-72
2021/05/31 11:17:08;;;;;;;3.53;2.00;;;24.80;48.60;;;;;;5110375;28;20092;-72
2021/05/31 11:19:41;;;;;;;4.90;2.25;;;24.90;48.50;;;;;;5093595;28;20453;-71
2021/05/31 11:22:29;;;;;;;3.40;1.60;;;24.80;48.00;;;;;;5091837;28;20465;-72
2021/05/31 11:25:09;;;;;;;3.28;1.83;;;24.90;48.20;;;;;;5092754;28;20036;-72
2021/05/31 11:27:38;;;;;;;2.65;1.83;;;24.90;48.00;;;;;;5084356;28;20048;-71
2021/05/31 11:30:16;;;;;;;3.03;1.90;;;25.00;47.90;;;;;;5111204;28;20048;-72
2021/05/31 11:32:43;;;;;;;3.10;1.58;;;25.00;47.50;;;;;;5109325;28;20093;-72
2021/05/31 11:35:13;;;;;;;4.00;2.20;;;25.00;47.50;;;;;;5076423;28;20130;-71
2021/05/31 11:38:00;;;;;;;4.53;2.10;;;25.10;47.40;;;;;;5106579;28;20043;-72
2021/05/31 11:40:32;;;;;;;2.67;2.05;;;25.10;47.10;;;;;;5100578;28;20507;-72
2021/05/31 11:43:05;;;;;;;3.15;2.13;;;25.20;46.60;;;;;;5082324;28;20044;-73
2021/05/31 11:45:38;;;;;;;3.60;2.22;;;25.30;46.40;;;;;;5089615;28;20527;-77
2021/05/31 11:48:14;;;;;;;2.72;1.50;;;25.30;46.20;;;;;;5074632;28;20064;-72
2021/05/31 11:50:44;;;;;;;4.65;2.20;;;25.50;46.30;;;;;;5103156;28;20097;-73
2021/05/31 11:53:14;;;;;;;3.90;2.22;;;25.80;46.10;;;;;;5092572;28;20040;-72
2021/05/31 11:55:41;;;;;;;4.15;2.08;;;26.10;46.20;;;;;;5071603;28;20101;-72
2021/05/31 11:58:09;;;;;;;2.80;1.70;;;26.40;45.30;;;;;;5103791;28;20050;-73
2021/05/31 12:00:39;;;;;;;2.65;1.70;;;26.80;45.00;;;;;;5102655;28;20166;-73
2021/05/31 12:03:23;;;;;;;3.25;1.98;;;27.00;44.50;;;;;;5105217;28;20470;-71
2021/05/31 12:05:54;;;;;;;3.80;1.90;;;27.40;44.10;;;;;;5100687;28;20036;-72
2021/05/31 12:08:22;;;;;;;3.85;2.30;;;27.50;43.40;;;;;;5094207;28;20046;-72
2021/05/31 12:10:50;;;;;;;3.80;2.60;;;27.60;43.10;;;;;;5094146;28;20122;-71
2021/05/31 12:13:26;;;;;;;3.97;2.30;;;27.90;42.90;;;;;;5103865;28;20040;-71
2021/05/31 12:15:54;;;;;;;5.45;2.67;;;28.20;42.30;;;;;;5077869;28;20495;-71
2021/05/31 12:18:20;;;;;;;3.50;2.00;;;28.60;42.30;;;;;;5090456;28;20043;-72
2021/05/31 12:20:54;;;;;;;3.60;2.30;;;28.90;41.70;;;;;;5105875;28;20085;-72
2021/05/31 12:23:23;;;;;;;4.20;2.50;;;29.10;41.50;;;;;;5087717;28;20048;-74
2021/05/31 12:25:52;;;;;;;3.25;2.20;;;29.30;41.40;;;;;;5099426;28;20032;-73
2021/05/31 12:28:20;;;;;;;4.15;1.90;;;29.50;41.20;;;;;;5084182;28;20028;-74
2021/05/31 12:30:51;;;;;;;3.20;2.38;;;29.60;40.90;;;;;;5095779;28;20036;-75
2021/05/31 12:33:18;;;;;;;3.55;1.98;;;29.70;40.70;;;;;;5086206;28;20040;-75
2021/05/31 12:35:48;;;;;;;3.17;2.22;;;30.00;40.80;;;;;;5098106;28;20077;-77
2021/05/31 12:38:21;;;;;;;3.30;1.90;;;30.10;40.30;;;;;;5098635;28;20035;-76
2021/05/31 12:40:50;;;;;;;2.35;1.67;;;30.30;40.40;;;;;;5090350;28;20056;-78
2021/05/31 12:43:18;;;;;;;2.58;1.38;;;30.50;40.00;;;;;;5081203;28;20584;-77
2021/05/31 12:45:49;;;;;;;2.90;1.60;;;30.70;39.60;;;;;;5108921;28;20088;-82
2021/05/31 12:48:21;;;;;;;3.70;1.98;;;30.80;39.30;;;;;;5088301;28;20129;-75
2021/05/31 12:50:54;;;;;;;2.65;1.77;;;30.90;38.90;;;;;;5066799;28;20044;-79
2021/05/31 12:53:22;;;;;;;2.30;1.58;;;30.70;38.20;;;;;;5106993;28;20054;-77
2021/05/31 12:55:49;;;;;;;3.95;2.60;;;30.90;38.40;;;;;;5097660;28;20075;-77
2021/05/31 12:58:23;;;;;;;4.70;1.98;;;31.10;38.20;;;;;;5089440;28;20471;-77
2021/05/31 13:00:50;;;;;;;4.40;2.20;;;31.40;38.20;;;;;;5080047;28;20055;-77
2021/05/31 13:03:18;;;;;;;3.38;1.88;;;31.60;38.20;;;;;;5095951;28;20043;-74
2021/05/31 13:05:51;;;;;;;3.25;2.35;;;31.90;37.90;;;;;;5103500;28;20078;-74
2021/05/31 13:08:20;;;;;;;3.28;1.92;;;32.00;37.50;;;;;;5084543;28;20044;-74
2021/05/31 13:10:53;;;;;;;4.28;2.60;;;32.10;37.60;;;;;;5101606;28;20077;-75
2021/05/31 13:13:30;;;;;;;3.88;2.47;;;32.30;37.00;;;;;;5109116;28;20031;-78
2021/05/31 13:15:57;;;;;;;3.20;2.33;;;32.40;36.80;;;;;;5105710;28;20679;-77
2021/05/31 13:18:33;;;;;;;4.28;2.90;;;32.50;36.60;;;;;;5086370;28;20082;-75
2021/05/31 13:21:12;;;;;;;3.42;2.50;;;32.60;36.20;;;;;;5102797;28;20081;-74